sensor_id;sensor_type;location;lat;lon;timestamp;pressure;altitude;pressure_sealevel;temperature;humidity
30343;BME280;17145;49.902;8.680;'2023-04-02 01:59:17';99200;;;9;59
30343;BME280;17145;49.902;8.680;'2023-04-02 02:01:45';99200;;;9;59
30343;BME280;17145;49.902;8.680;'2023-04-02 02:04:16';99200;;;9;59
30343;BME280;17145;49.902;8.680;'2023-04-02 02:06:44';99200;;;9;59
30343;BME280;17145;49.902;8.680;'2023-04-02 02:09:25';99210;;;9;59
30343;BME280;17145;49.902;8.680;'2023-04-02 02:11:53';99210;;;9;59
30343;BME280;17145;49.902;8.680;'2023-04-02 02:14:25';99210;;;9;59
30343;BME280;17145;49.902;8.680;'2023-04-02 02:16:54';99210;;;9;59
30343;BME280;17145;49.902;8.680;'2023-04-02 02:19:29';99220;;;9;59
30343;BME280;17145;49.902;8.680;'2023-04-02 02:21:59';99220;;;9;59
30343;BME280;17145;49.902;8.680;'2023-04-02 02:24:26';99220;;;9;59
30343;BME280;17145;49.902;8.680;'2023-04-02 02:26:55';99220;;;9;59
30343;BME280;17145;49.902;8.680;'2023-04-02 02:29:22';99220;;;9;59
30343;BME280;17145;49.902;8.680;'2023-04-02 02:31:51';99220;;;9;59
30343;BME280;17145;49.902;8.680;'2023-04-02 02:34:24';99230;;;9;59
30343;BME280;17145;49.902;8.680;'2023-04-02 02:36:52';99230;;;9;59
30343;BME280;17145;49.902;8.680;'2023-04-02 02:39:23';99230;;;9;59
30343;BME280;17145;49.902;8.680;'2023-04-02 02:41:52';99230;;;9;59
30343;BME280;17145;49.902;8.680;'2023-04-02 02:44:20';99230;;;9;59
30343;BME280;17145;49.902;8.680;'2023-04-02 02:46:49';99230;;;9;59
30343;BME280;17145;49.902;8.680;'2023-04-02 02:49:22';99230;;;9;59
30343;BME280;17145;49.902;8.680;'2023-04-02 02:51:53';99230;;;9;59
30343;BME280;17145;49.902;8.680;'2023-04-02 02:54:25';99230;;;9;59
30343;BME280;17145;49.902;8.680;'2023-04-02 02:56:56';99230;;;9;59
30343;BME280;17145;49.902;8.680;'2023-04-02 02:59:28';99230;;;9;58
30343;BME280;17145;49.902;8.680;'2023-04-02 03:01:59';99230;;;9;59
30343;BME280;17145;49.902;8.680;'2023-04-02 03:04:31';99240;;;9;59
30343;BME280;17145;49.902;8.680;'2023-04-02 03:07:01';99240;;;9;59
30343;BME280;17145;49.902;8.680;'2023-04-02 03:09:43';99240;;;9;58
30343;BME280;17145;49.902;8.680;'2023-04-02 03:12:28';99250;;;9;59
30343;BME280;17145;49.902;8.680;'2023-04-02 03:15:05';99250;;;9;59
30343;BME280;17145;49.902;8.680;'2023-04-02 03:17:47';99250;;;9;59
30343;BME280;17145;49.902;8.680;'2023-04-02 03:20:27';99250;;;9;59
30343;BME280;17145;49.902;8.680;'2023-04-02 03:23:03';99260;;;9;59
30343;BME280;17145;49.902;8.680;'2023-04-02 03:25:41';99260;;;9;59
30343;BME280;17145;49.902;8.680;'2023-04-02 03:28:15';99260;;;9;59
30343;BME280;17145;49.902;8.680;'2023-04-02 03:30:48';99260;;;9;59
30343;BME280;17145;49.902;8.680;'2023-04-02 03:33:16';99260;;;9;59
30343;BME280;17145;49.902;8.680;'2023-04-02 03:35:49';99260;;;9;58
30343;BME280;17145;49.902;8.680;'2023-04-02 03:38:25';99260;;;9;58
30343;BME280;17145;49.902;8.680;'2023-04-02 03:41:03';99270;;;9;58
30343;BME280;17145;49.902;8.680;'2023-04-02 03:46:16';99280;;;9;58
30343;BME280;17145;49.902;8.680;'2023-04-02 03:51:21';99290;;;9;58
30343;BME280;17145;49.902;8.680;'2023-04-02 03:53:49';99290;;;9;58
30343;BME280;17145;49.902;8.680;'2023-04-02 03:56:17';99290;;;10;58
30343;BME280;17145;49.902;8.680;'2023-04-02 03:58:45';99290;;;10;58
30343;BME280;17145;49.902;8.680;'2023-04-02 04:01:16';99290;;;9;58
30343;BME280;17145;49.902;8.680;'2023-04-02 04:03:44';99290;;;9;58
30343;BME280;17145;49.902;8.680;'2023-04-02 04:06:15';99300;;;9;58
30343;BME280;17145;49.902;8.680;'2023-04-02 04:08:48';99300;;;9;58
30343;BME280;17145;49.902;8.680;'2023-04-02 04:11:19';99300;;;9;58
30343;BME280;17145;49.902;8.680;'2023-04-02 04:13:50';99300;;;9;58
30343;BME280;17145;49.902;8.680;'2023-04-02 04:16:18';99300;;;9;58
30343;BME280;17145;49.902;8.680;'2023-04-02 04:18:50';99300;;;9;58
30343;BME280;17145;49.902;8.680;'2023-04-02 04:21:28';99310;;;9;58
30343;BME280;17145;49.902;8.680;'2023-04-02 04:23:57';99310;;;9;58
30343;BME280;17145;49.902;8.680;'2023-04-02 04:26:27';99320;;;9;58
30343;BME280;17145;49.902;8.680;'2023-04-02 04:28:56';99320;;;9;59
30343;BME280;17145;49.902;8.680;'2023-04-02 04:31:30';99330;;;9;59
30343;BME280;17145;49.902;8.680;'2023-04-02 04:34:03';99330;;;9;59
30343;BME280;17145;49.902;8.680;'2023-04-02 04:36:37';99330;;;9;59
30343;BME280;17145;49.902;8.680;'2023-04-02 04:39:14';99330;;;9;59
30343;BME280;17145;49.902;8.680;'2023-04-02 04:41:46';99330;;;9;59
30343;BME280;17145;49.902;8.680;'2023-04-02 04:44:19';99340;;;9;59
30343;BME280;17145;49.902;8.680;'2023-04-02 04:46:52';99340;;;9;58
30343;BME280;17145;49.902;8.680;'2023-04-02 04:49:25';99340;;;9;58
30343;BME280;17145;49.902;8.680;'2023-04-02 04:51:58';99340;;;9;59
30343;BME280;17145;49.902;8.680;'2023-04-02 04:54:28';99340;;;9;58
30343;BME280;17145;49.902;8.680;'2023-04-02 04:57:01';99350;;;9;58
30343;BME280;17145;49.902;8.680;'2023-04-02 04:59:30';99350;;;9;58
30343;BME280;17145;49.902;8.680;'2023-04-02 05:01:59';99360;;;10;58
30343;BME280;17145;49.902;8.680;'2023-04-02 05:04:27';99360;;;9;58
30343;BME280;17145;49.902;8.680;'2023-04-02 05:06:57';99360;;;9;58
30343;BME280;17145;49.902;8.680;'2023-04-02 05:09:35';99360;;;9;58
30343;BME280;17145;49.902;8.680;'2023-04-02 05:12:11';99360;;;9;58
30343;BME280;17145;49.902;8.680;'2023-04-02 05:14:44';99370;;;9;58
30343;BME280;17145;49.902;8.680;'2023-04-02 05:17:20';99370;;;9;58
30343;BME280;17145;49.902;8.680;'2023-04-02 05:19:54';99370;;;9;58
30343;BME280;17145;49.902;8.680;'2023-04-02 05:22:29';99380;;;9;57
30343;BME280;17145;49.902;8.680;'2023-04-02 05:25:01';99380;;;9;57
30343;BME280;17145;49.902;8.680;'2023-04-02 05:27:33';99380;;;9;57
30343;BME280;17145;49.902;8.680;'2023-04-02 05:30:13';99390;;;9;57
30343;BME280;17145;49.902;8.680;'2023-04-02 05:32:43';99390;;;9;57
30343;BME280;17145;49.902;8.680;'2023-04-02 05:35:20';99390;;;9;57
30343;BME280;17145;49.902;8.680;'2023-04-02 05:37:53';99390;;;9;58
30343;BME280;17145;49.902;8.680;'2023-04-02 05:40:25';99400;;;9;58
30343;BME280;17145;49.902;8.680;'2023-04-02 05:42:57';99400;;;9;58
30343;BME280;17145;49.902;8.680;'2023-04-02 05:45:28';99400;;;9;58
30343;BME280;17145;49.902;8.680;'2023-04-02 05:48:03';99410;;;9;58
30343;BME280;17145;49.902;8.680;'2023-04-02 05:50:34';99410;;;9;58
30343;BME280;17145;49.902;8.680;'2023-04-02 05:53:03';99420;;;9;57
30343;BME280;17145;49.902;8.680;'2023-04-02 05:55:35';99420;;;9;57
30343;BME280;17145;49.902;8.680;'2023-04-02 05:58:08';99420;;;9;57
30343;BME280;17145;49.902;8.680;'2023-04-02 06:00:41';99430;;;9;58
30343;BME280;17145;49.902;8.680;'2023-04-02 06:03:13';99430;;;9;57
30343;BME280;17145;49.902;8.680;'2023-04-02 06:05:48';99440;;;9;57
30343;BME280;17145;49.902;8.680;'2023-04-02 06:08:21';99440;;;9;57
30343;BME280;17145;49.902;8.680;'2023-04-02 06:10:51';99440;;;9;57
30343;BME280;17145;49.902;8.680;'2023-04-02 06:13:27';99440;;;9;58
30343;BME280;17145;49.902;8.680;'2023-04-02 06:16:00';99450;;;9;58
30343;BME280;17145;49.902;8.680;'2023-04-02 06:18:34';99450;;;9;57
30343;BME280;17145;49.902;8.680;'2023-04-02 06:21:05';99450;;;9;57
30343;BME280;17145;49.902;8.680;'2023-04-02 06:23:35';99460;;;9;57
30343;BME280;17145;49.902;8.680;'2023-04-02 06:26:12';99460;;;9;57
30343;BME280;17145;49.902;8.680;'2023-04-02 06:28:48';99460;;;9;57
30343;BME280;17145;49.902;8.680;'2023-04-02 06:31:22';99470;;;9;57
30343;BME280;17145;49.902;8.680;'2023-04-02 06:33:56';99470;;;9;57
30343;BME280;17145;49.902;8.680;'2023-04-02 06:36:28';99470;;;9;57
30343;BME280;17145;49.902;8.680;'2023-04-02 06:38:59';99480;;;9;58
30343;BME280;17145;49.902;8.680;'2023-04-02 06:41:32';99480;;;9;58
30343;BME280;17145;49.902;8.680;'2023-04-02 06:44:08';99490;;;9;58
30343;BME280;17145;49.902;8.680;'2023-04-02 06:46:40';99490;;;9;57
30343;BME280;17145;49.902;8.680;'2023-04-02 06:49:13';99490;;;9;57
30343;BME280;17145;49.902;8.680;'2023-04-02 06:51:46';99500;;;9;57
30343;BME280;17145;49.902;8.680;'2023-04-02 06:54:15';99500;;;9;57
30343;BME280;17145;49.902;8.680;'2023-04-02 06:56:49';99500;;;9;57
30343;BME280;17145;49.902;8.680;'2023-04-02 06:59:23';99510;;;9;57
30343;BME280;17145;49.902;8.680;'2023-04-02 07:01:56';99510;;;9;58
30343;BME280;17145;49.902;8.680;'2023-04-02 07:04:30';99510;;;9;58
30343;BME280;17145;49.902;8.680;'2023-04-02 07:07:06';99510;;;9;58
30343;BME280;17145;49.902;8.680;'2023-04-02 07:09:38';99510;;;9;58
30343;BME280;17145;49.902;8.680;'2023-04-02 07:12:16';99520;;;9;58
30343;BME280;17145;49.902;8.680;'2023-04-02 07:14:52';99520;;;9;58
30343;BME280;17145;49.902;8.680;'2023-04-02 07:17:26';99530;;;9;58
30343;BME280;17145;49.902;8.680;'2023-04-02 07:19:59';99530;;;9;58
30343;BME280;17145;49.902;8.680;'2023-04-02 07:22:34';99540;;;9;58
30343;BME280;17145;49.902;8.680;'2023-04-02 07:25:17';99540;;;9;58
30343;BME280;17145;49.902;8.680;'2023-04-02 07:30:32';99550;;;9;58
30343;BME280;17145;49.902;8.680;'2023-04-02 07:33:04';99560;;;9;58
30343;BME280;17145;49.902;8.680;'2023-04-02 07:35:35';99560;;;9;58
30343;BME280;17145;49.902;8.680;'2023-04-02 07:38:04';99560;;;9;58
30343;BME280;17145;49.902;8.680;'2023-04-02 07:40:39';99560;;;9;58
30343;BME280;17145;49.902;8.680;'2023-04-02 07:43:09';99570;;;9;58
30343;BME280;17145;49.902;8.680;'2023-04-02 07:45:40';99570;;;9;58
30343;BME280;17145;49.902;8.680;'2023-04-02 07:48:16';99580;;;9;58
30343;BME280;17145;49.902;8.680;'2023-04-02 07:50:48';99580;;;9;58
30343;BME280;17145;49.902;8.680;'2023-04-02 07:53:21';99580;;;9;58
30343;BME280;17145;49.902;8.680;'2023-04-02 07:55:54';99580;;;9;58
30343;BME280;17145;49.902;8.680;'2023-04-02 07:58:30';99580;;;9;58
30343;BME280;17145;49.902;8.680;'2023-04-02 08:01:09';99590;;;10;58
30343;BME280;17145;49.902;8.680;'2023-04-02 08:03:44';99590;;;10;58
30343;BME280;17145;49.902;8.680;'2023-04-02 08:06:19';99600;;;10;58
30343;BME280;17145;49.902;8.680;'2023-04-02 08:08:54';99600;;;10;57
30343;BME280;17145;49.902;8.680;'2023-04-02 08:11:29';99610;;;10;57
30343;BME280;17145;49.902;8.680;'2023-04-02 08:13:56';99610;;;10;57
30343;BME280;17145;49.902;8.680;'2023-04-02 08:16:27';99620;;;10;57
30343;BME280;17145;49.902;8.680;'2023-04-02 08:18:55';99620;;;10;57
30343;BME280;17145;49.902;8.680;'2023-04-02 08:21:25';99620;;;10;57
30343;BME280;17145;49.902;8.680;'2023-04-02 08:23:57';99630;;;10;57
30343;BME280;17145;49.902;8.680;'2023-04-02 08:26:30';99630;;;10;56
30343;BME280;17145;49.902;8.680;'2023-04-02 08:29:05';99630;;;10;56
30343;BME280;17145;49.902;8.680;'2023-04-02 08:31:37';99640;;;10;56
30343;BME280;17145;49.902;8.680;'2023-04-02 08:34:13';99640;;;10;55
30343;BME280;17145;49.902;8.680;'2023-04-02 08:36:43';99640;;;10;56
30343;BME280;17145;49.902;8.680;'2023-04-02 08:39:17';99650;;;10;56
30343;BME280;17145;49.902;8.680;'2023-04-02 08:41:52';99650;;;10;56
30343;BME280;17145;49.902;8.680;'2023-04-02 08:44:24';99660;;;10;56
30343;BME280;17145;49.902;8.680;'2023-04-02 08:46:56';99660;;;10;55
30343;BME280;17145;49.902;8.680;'2023-04-02 08:49:32';99670;;;10;55
30343;BME280;17145;49.902;8.680;'2023-04-02 08:52:03';99670;;;10;55
30343;BME280;17145;49.902;8.680;'2023-04-02 08:54:31';99680;;;10;55
30343;BME280;17145;49.902;8.680;'2023-04-02 08:56:58';99680;;;10;55
30343;BME280;17145;49.902;8.680;'2023-04-02 08:59:26';99690;;;10;55
30343;BME280;17145;49.902;8.680;'2023-04-02 09:01:57';99700;;;10;56
30343;BME280;17145;49.902;8.680;'2023-04-02 09:04:25';99700;;;10;55
30343;BME280;17145;49.902;8.680;'2023-04-02 09:06:52';99700;;;10;55
30343;BME280;17145;49.902;8.680;'2023-04-02 09:09:20';99710;;;10;56
30343;BME280;17145;49.902;8.680;'2023-04-02 09:11:48';99710;;;10;56
30343;BME280;17145;49.902;8.680;'2023-04-02 09:14:16';99720;;;10;55
30343;BME280;17145;49.902;8.680;'2023-04-02 09:16:44';99720;;;10;55
30343;BME280;17145;49.902;8.680;'2023-04-02 09:19:18';99720;;;10;56
30343;BME280;17145;49.902;8.680;'2023-04-02 09:21:46';99730;;;10;56
30343;BME280;17145;49.902;8.680;'2023-04-02 09:24:13';99730;;;10;56
30343;BME280;17145;49.902;8.680;'2023-04-02 09:26:41';99740;;;10;56
30343;BME280;17145;49.902;8.680;'2023-04-02 09:29:14';99740;;;10;56
30343;BME280;17145;49.902;8.680;'2023-04-02 09:31:43';99750;;;10;56
30343;BME280;17145;49.902;8.680;'2023-04-02 09:34:11';99760;;;10;57
30343;BME280;17145;49.902;8.680;'2023-04-02 09:36:38';99760;;;10;56
30343;BME280;17145;49.902;8.680;'2023-04-02 09:41:49';99770;;;10;57
30343;BME280;17145;49.902;8.680;'2023-04-02 09:44:17';99770;;;10;57
30343;BME280;17145;49.902;8.680;'2023-04-02 09:46:44';99780;;;10;57
30343;BME280;17145;49.902;8.680;'2023-04-02 09:49:12';99790;;;10;57
30343;BME280;17145;49.902;8.680;'2023-04-02 09:51:39';99790;;;10;56
30343;BME280;17145;49.902;8.680;'2023-04-02 09:54:06';99800;;;10;56
30343;BME280;17145;49.902;8.680;'2023-04-02 09:56:34';99800;;;9;56
30343;BME280;17145;49.902;8.680;'2023-04-02 09:59:02';99810;;;9;56
30343;BME280;17145;49.902;8.680;'2023-04-02 10:01:29';99810;;;9;57
30343;BME280;17145;49.902;8.680;'2023-04-02 10:03:57';99810;;;9;57
30343;BME280;17145;49.902;8.680;'2023-04-02 10:06:24';99820;;;8;58
30343;BME280;17145;49.902;8.680;'2023-04-02 10:08:52';99830;;;8;59
30343;BME280;17145;49.902;8.680;'2023-04-02 10:11:19';99840;;;8;59
30343;BME280;17145;49.902;8.680;'2023-04-02 10:13:47';99840;;;8;59
30343;BME280;17145;49.902;8.680;'2023-04-02 10:16:14';99850;;;8;60
30343;BME280;17145;49.902;8.680;'2023-04-02 10:18:41';99850;;;8;59
30343;BME280;17145;49.902;8.680;'2023-04-02 10:21:10';99860;;;9;59
30343;BME280;17145;49.902;8.680;'2023-04-02 10:23:37';99870;;;8;59
30343;BME280;17145;49.902;8.680;'2023-04-02 10:26:05';99880;;;8;58
30343;BME280;17145;49.902;8.680;'2023-04-02 10:28:33';99880;;;8;58
30343;BME280;17145;49.902;8.680;'2023-04-02 10:31:01';99890;;;8;58
30343;BME280;17145;49.902;8.680;'2023-04-02 10:33:28';99900;;;8;58
30343;BME280;17145;49.902;8.680;'2023-04-02 10:35:56';99900;;;8;57
30343;BME280;17145;49.902;8.680;'2023-04-02 10:38:24';99910;;;8;58
30343;BME280;17145;49.902;8.680;'2023-04-02 10:40:55';99910;;;8;58
30343;BME280;17145;49.902;8.680;'2023-04-02 10:43:34';99910;;;8;58
30343;BME280;17145;49.902;8.680;'2023-04-02 10:46:10';99920;;;7;57
30343;BME280;17145;49.902;8.680;'2023-04-02 10:48:42';99930;;;8;57
30343;BME280;17145;49.902;8.680;'2023-04-02 10:51:21';99940;;;7;57
30343;BME280;17145;49.902;8.680;'2023-04-02 10:53:50';99940;;;7;57
30343;BME280;17145;49.902;8.680;'2023-04-02 10:56:25';99950;;;7;58
30343;BME280;17145;49.902;8.680;'2023-04-02 10:59:01';99950;;;7;58
30343;BME280;17145;49.902;8.680;'2023-04-02 11:01:40';99960;;;7;58
30343;BME280;17145;49.902;8.680;'2023-04-02 11:04:14';99960;;;7;58
30343;BME280;17145;49.902;8.680;'2023-04-02 11:06:42';99960;;;8;58
30343;BME280;17145;49.902;8.680;'2023-04-02 11:09:14';99970;;;7;57
30343;BME280;17145;49.902;8.680;'2023-04-02 11:11:51';99970;;;7;58
30343;BME280;17145;49.902;8.680;'2023-04-02 11:14:23';99980;;;8;58
30343;BME280;17145;49.902;8.680;'2023-04-02 11:16:53';99980;;;8;58
30343;BME280;17145;49.902;8.680;'2023-04-02 11:19:24';99990;;;8;58
30343;BME280;17145;49.902;8.680;'2023-04-02 11:22:03';99990;;;8;57
30343;BME280;17145;49.902;8.680;'2023-04-02 11:24:31';100000;;;8;57
30343;BME280;17145;49.902;8.680;'2023-04-02 11:26:58';100010;;;8;58
30343;BME280;17145;49.902;8.680;'2023-04-02 11:32:17';100020;;;8;57
30343;BME280;17145;49.902;8.680;'2023-04-02 11:34:44';100020;;;8;58
30343;BME280;17145;49.902;8.680;'2023-04-02 11:37:16';100030;;;8;57
30343;BME280;17145;49.902;8.680;'2023-04-02 11:45:04';100040;;;8;57
30343;BME280;17145;49.902;8.680;'2023-04-02 11:50:09';100050;;;8;57
30343;BME280;17145;49.902;8.680;'2023-04-02 11:55:14';100060;;;8;56
30343;BME280;17145;49.902;8.680;'2023-04-02 11:57:43';100060;;;7;57
30343;BME280;17145;49.902;8.680;'2023-04-02 12:00:18';100070;;;8;57
30343;BME280;17145;49.902;8.680;'2023-04-02 12:02:51';100080;;;8;56
30343;BME280;17145;49.902;8.680;'2023-04-02 12:05:21';100080;;;8;55
30343;BME280;17145;49.902;8.680;'2023-04-02 12:07:51';100090;;;8;56
30343;BME280;17145;49.902;8.680;'2023-04-02 12:10:22';100090;;;8;56
30343;BME280;17145;49.902;8.680;'2023-04-02 12:12:58';100100;;;8;55
30343;BME280;17145;49.902;8.680;'2023-04-02 12:15:34';100110;;;7;56
30343;BME280;17145;49.902;8.680;'2023-04-02 12:18:10';100120;;;8;56
30343;BME280;17145;49.902;8.680;'2023-04-02 12:20:40';100120;;;8;56
30343;BME280;17145;49.902;8.680;'2023-04-02 12:23:15';100120;;;8;55
30343;BME280;17145;49.902;8.680;'2023-04-02 12:25:53';100130;;;8;55
30343;BME280;17145;49.902;8.680;'2023-04-02 12:28:33';100130;;;8;55
30343;BME280;17145;49.902;8.680;'2023-04-02 12:31:09';100130;;;8;55
30343;BME280;17145;49.902;8.680;'2023-04-02 12:33:39';100140;;;8;56
30343;BME280;17145;49.902;8.680;'2023-04-02 12:36:16';100140;;;7;55
30343;BME280;17145;49.902;8.680;'2023-04-02 12:38:49';100140;;;7;56
30343;BME280;17145;49.902;8.680;'2023-04-02 12:41:29';100150;;;7;56
30343;BME280;17145;49.902;8.680;'2023-04-02 12:44:12';100150;;;8;56
30343;BME280;17145;49.902;8.680;'2023-04-02 12:46:48';100160;;;7;56
30343;BME280;17145;49.902;8.680;'2023-04-02 12:49:27';100160;;;8;56
30343;BME280;17145;49.902;8.680;'2023-04-02 12:51:58';100160;;;8;57
30343;BME280;17145;49.902;8.680;'2023-04-02 12:54:36';100160;;;8;57
30343;BME280;17145;49.902;8.680;'2023-04-02 12:57:11';100170;;;8;56
30343;BME280;17145;49.902;8.680;'2023-04-02 12:59:43';100180;;;8;56
30343;BME280;17145;49.902;8.680;'2023-04-02 13:02:25';100180;;;8;56
30343;BME280;17145;49.902;8.680;'2023-04-02 13:04:55';100180;;;9;56
30343;BME280;17145;49.902;8.680;'2023-04-02 13:07:27';100180;;;8;54
30343;BME280;17145;49.902;8.680;'2023-04-02 13:09:58';100190;;;8;54
30343;BME280;17145;49.902;8.680;'2023-04-02 13:12:34';100190;;;8;54
30343;BME280;17145;49.902;8.680;'2023-04-02 13:15:02';100200;;;8;54
30343;BME280;17145;49.902;8.680;'2023-04-02 13:20:07';100200;;;8;55
30343;BME280;17145;49.902;8.680;'2023-04-02 13:22:35';100210;;;8;55
30343;BME280;17145;49.902;8.680;'2023-04-02 13:25:08';100210;;;8;54
30343;BME280;17145;49.902;8.680;'2023-04-02 13:27:35';100220;;;8;54
30343;BME280;17145;49.902;8.680;'2023-04-02 13:30:11';100220;;;8;54
30343;BME280;17145;49.902;8.680;'2023-04-02 13:35:18';100230;;;8;52
30343;BME280;17145;49.902;8.680;'2023-04-02 13:40:27';100240;;;8;53
30343;BME280;17145;49.902;8.680;'2023-04-02 13:48:24';100250;;;8;53
30343;BME280;17145;49.902;8.680;'2023-04-02 13:50:51';100260;;;7;52
30343;BME280;17145;49.902;8.680;'2023-04-02 13:56:03';100260;;;8;52
30343;BME280;17145;49.902;8.680;'2023-04-02 13:58:47';100270;;;7;52
30343;BME280;17145;49.902;8.680;'2023-04-02 14:04:08';100280;;;7;53
30343;BME280;17145;49.902;8.680;'2023-04-02 14:06:50';100280;;;7;52
30343;BME280;17145;49.902;8.680;'2023-04-02 14:09:20';100280;;;8;53
30343;BME280;17145;49.902;8.680;'2023-04-02 14:11:50';100290;;;8;53
30343;BME280;17145;49.902;8.680;'2023-04-02 14:14:30';100290;;;8;53
30343;BME280;17145;49.902;8.680;'2023-04-02 14:16:58';100290;;;8;53
30343;BME280;17145;49.902;8.680;'2023-04-02 14:19:29';100300;;;7;52
30343;BME280;17145;49.902;8.680;'2023-04-02 14:21:58';100300;;;7;53
30343;BME280;17145;49.902;8.680;'2023-04-02 14:24:28';100310;;;7;53
30343;BME280;17145;49.902;8.680;'2023-04-02 14:27:06';100320;;;8;53
30343;BME280;17145;49.902;8.680;'2023-04-02 14:29:34';100320;;;7;53
30343;BME280;17145;49.902;8.680;'2023-04-02 14:32:02';100320;;;8;53
30343;BME280;17145;49.902;8.680;'2023-04-02 14:34:30';100330;;;8;52
30343;BME280;17145;49.902;8.680;'2023-04-02 14:36:59';100330;;;8;52
30343;BME280;17145;49.902;8.680;'2023-04-02 14:39:27';100330;;;8;53
30343;BME280;17145;49.902;8.680;'2023-04-02 14:41:55';100340;;;8;52
30343;BME280;17145;49.902;8.680;'2023-04-02 14:44:25';100340;;;8;54
30343;BME280;17145;49.902;8.680;'2023-04-02 14:46:53';100340;;;7;53
30343;BME280;17145;49.902;8.680;'2023-04-02 14:49:30';100340;;;7;52
30343;BME280;17145;49.902;8.680;'2023-04-02 14:52:01';100350;;;7;52
30343;BME280;17145;49.902;8.680;'2023-04-02 14:57:13';100360;;;8;52
30343;BME280;17145;49.902;8.680;'2023-04-02 14:59:42';100360;;;8;52
30343;BME280;17145;49.902;8.680;'2023-04-02 15:02:18';100360;;;7;52
30343;BME280;17145;49.902;8.680;'2023-04-02 15:04:47';100360;;;8;52
30343;BME280;17145;49.902;8.680;'2023-04-02 15:07:18';100360;;;7;52
30343;BME280;17145;49.902;8.680;'2023-04-02 15:09:48';100360;;;8;52
30343;BME280;17145;49.902;8.680;'2023-04-02 15:12:25';100360;;;8;52
30343;BME280;17145;49.902;8.680;'2023-04-02 15:14:55';100360;;;7;52
30343;BME280;17145;49.902;8.680;'2023-04-02 15:20:17';100360;;;7;52
30343;BME280;17145;49.902;8.680;'2023-04-02 15:22:44';100370;;;7;52
30343;BME280;17145;49.902;8.680;'2023-04-02 15:25:12';100380;;;7;52
30343;BME280;17145;49.902;8.680;'2023-04-02 15:27:40';100380;;;7;52
30343;BME280;17145;49.902;8.680;'2023-04-02 15:30:09';100380;;;7;51
30343;BME280;17145;49.902;8.680;'2023-04-02 15:32:36';100380;;;8;51
30343;BME280;17145;49.902;8.680;'2023-04-02 15:35:04';100390;;;8;51
30343;BME280;17145;49.902;8.680;'2023-04-02 15:37:32';100400;;;7;51
30343;BME280;17145;49.902;8.680;'2023-04-02 15:39:59';100400;;;7;51
30343;BME280;17145;49.902;8.680;'2023-04-02 15:42:28';100400;;;7;50
30343;BME280;17145;49.902;8.680;'2023-04-02 15:44:56';100400;;;8;50
30343;BME280;17145;49.902;8.680;'2023-04-02 15:47:24';100400;;;7;50
30343;BME280;17145;49.902;8.680;'2023-04-02 15:49:52';100410;;;8;50
30343;BME280;17145;49.902;8.680;'2023-04-02 15:52:20';100410;;;7;49
30343;BME280;17145;49.902;8.680;'2023-04-02 15:54:50';100420;;;7;50
30343;BME280;17145;49.902;8.680;'2023-04-02 15:57:18';100420;;;7;50
30343;BME280;17145;49.902;8.680;'2023-04-02 15:59:46';100420;;;7;50
30343;BME280;17145;49.902;8.680;'2023-04-02 16:02:17';100430;;;8;50
30343;BME280;17145;49.902;8.680;'2023-04-02 16:04:48';100430;;;7;50
30343;BME280;17145;49.902;8.680;'2023-04-02 16:07:33';100440;;;7;49
30343;BME280;17145;49.902;8.680;'2023-04-02 16:10:14';100440;;;7;49
30343;BME280;17145;49.902;8.680;'2023-04-02 16:12:55';100450;;;7;49
30343;BME280;17145;49.902;8.680;'2023-04-02 16:15:35';100440;;;7;50
30343;BME280;17145;49.902;8.680;'2023-04-02 16:18:21';100450;;;6;50
30343;BME280;17145;49.902;8.680;'2023-04-02 16:20:59';100460;;;6;50
30343;BME280;17145;49.902;8.680;'2023-04-02 16:23:46';100460;;;7;50
30343;BME280;17145;49.902;8.680;'2023-04-02 16:26:21';100470;;;6;50
30343;BME280;17145;49.902;8.680;'2023-04-02 16:28:57';100470;;;7;50
30343;BME280;17145;49.902;8.680;'2023-04-02 16:31:32';100470;;;7;50
30343;BME280;17145;49.902;8.680;'2023-04-02 16:34:07';100480;;;6;50
30343;BME280;17145;49.902;8.680;'2023-04-02 16:36:47';100470;;;7;50
30343;BME280;17145;49.902;8.680;'2023-04-02 16:39:26';100480;;;6;50
30343;BME280;17145;49.902;8.680;'2023-04-02 16:42:00';100480;;;6;50
30343;BME280;17145;49.902;8.680;'2023-04-02 16:44:35';100480;;;6;49
30343;BME280;17145;49.902;8.680;'2023-04-02 16:47:16';100480;;;7;49
30343;BME280;17145;49.902;8.680;'2023-04-02 16:49:48';100490;;;6;49
30343;BME280;17145;49.902;8.680;'2023-04-02 16:52:20';100490;;;7;49
30343;BME280;17145;49.902;8.680;'2023-04-02 16:54:52';100500;;;7;50
30343;BME280;17145;49.902;8.680;'2023-04-02 16:57:22';100490;;;7;49
30343;BME280;17145;49.902;8.680;'2023-04-02 16:59:59';100510;;;6;49
30343;BME280;17145;49.902;8.680;'2023-04-02 17:02:38';100510;;;7;49
30343;BME280;17145;49.902;8.680;'2023-04-02 17:05:15';100520;;;6;49
30343;BME280;17145;49.902;8.680;'2023-04-02 17:07:49';100520;;;7;49
30343;BME280;17145;49.902;8.680;'2023-04-02 17:10:23';100530;;;7;49
30343;BME280;17145;49.902;8.680;'2023-04-02 17:12:54';100530;;;6;49
30343;BME280;17145;49.902;8.680;'2023-04-02 17:15:36';100530;;;7;49
30343;BME280;17145;49.902;8.680;'2023-04-02 17:18:08';100540;;;7;49
30343;BME280;17145;49.902;8.680;'2023-04-02 17:20:42';100540;;;7;49
30343;BME280;17145;49.902;8.680;'2023-04-02 17:23:18';100530;;;7;48
30343;BME280;17145;49.902;8.680;'2023-04-02 17:25:52';100550;;;6;48
30343;BME280;17145;49.902;8.680;'2023-04-02 17:28:28';100540;;;6;48
30343;BME280;17145;49.902;8.680;'2023-04-02 17:31:02';100550;;;6;48
30343;BME280;17145;49.902;8.680;'2023-04-02 17:36:21';100550;;;6;48
30343;BME280;17145;49.902;8.680;'2023-04-02 17:38:56';100550;;;6;48
30343;BME280;17145;49.902;8.680;'2023-04-02 17:41:25';100550;;;6;49
30343;BME280;17145;49.902;8.680;'2023-04-02 17:44:01';100560;;;5;49